sensor_id;sensor_type;location;lat;lon;timestamp;pressure;altitude;pressure_sealevel;temperature;humidity
76994;BME280;66749;47.406;18.822;2023-02-02T00:00:24;100247.19;;;4.77;79.12
76994;BME280;66749;47.406;18.822;2023-02-02T00:00:56;100253.97;;;4.80;78.28
76994;BME280;66749;47.406;18.822;2023-02-02T00:01:28;100255.66;;;4.81;78.88
76994;BME280;66749;47.406;18.822;2023-02-02T00:02:01;100263.47;;;4.79;79.04
76994;BME280;66749;47.406;18.822;2023-02-02T00:02:32;100259.41;;;4.72;78.28
76994;BME280;66749;47.406;18.822;2023-02-02T00:03:06;100258.63;;;4.70;78.87
76994;BME280;66749;47.406;18.822;2023-02-02T00:03:42;100253.28;;;4.74;78.58
76994;BME280;66749;47.406;18.822;2023-02-02T00:04:25;100254.88;;;4.79;78.43
76994;BME280;66749;47.406;18.822;2023-02-02T00:04:57;100255.78;;;4.78;78.36
76994;BME280;66749;47.406;18.822;2023-02-02T00:05:29;100257.47;;;4.79;77.69
76994;BME280;66749;47.406;18.822;2023-02-02T00:06:01;100248.16;;;4.73;79.31
76994;BME280;66749;47.406;18.822;2023-02-02T00:06:34;100244.69;;;4.74;78.65
76994;BME280;66749;47.406;18.822;2023-02-02T00:07:06;100242.09;;;4.74;78.57
76994;BME280;66749;47.406;18.822;2023-02-02T00:07:37;100250.66;;;4.76;78.39
76994;BME280;66749;47.406;18.822;2023-02-02T00:08:11;100254.09;;;4.77;78.61
76994;BME280;66749;47.406;18.822;2023-02-02T00:08:47;100249.84;;;4.74;79.57
76994;BME280;66749;47.406;18.822;2023-02-02T00:09:24;100247.34;;;4.72;79.36
76994;BME280;66749;47.406;18.822;2023-02-02T00:09:59;100251.53;;;4.75;79.71
76994;BME280;66749;47.406;18.822;2023-02-02T00:10:31;100252.34;;;4.77;79.50
76994;BME280;66749;47.406;18.822;2023-02-02T00:11:03;100235.03;;;4.79;79.37
76994;BME280;66749;47.406;18.822;2023-02-02T00:11:46;100242.69;;;4.82;79.03
76994;BME280;66749;47.406;18.822;2023-02-02T00:12:18;100248.97;;;4.75;79.83
76994;BME280;66749;47.406;18.822;2023-02-02T00:12:49;100256.78;;;4.73;79.39
76994;BME280;66749;47.406;18.822;2023-02-02T00:13:21;100245.66;;;4.71;78.71
76994;BME280;66749;47.406;18.822;2023-02-02T00:13:55;100246.69;;;4.66;79.16
76994;BME280;66749;47.406;18.822;2023-02-02T00:14:27;100250.91;;;4.68;78.02
76994;BME280;66749;47.406;18.822;2023-02-02T00:14:58;100240.41;;;4.73;76.91
76994;BME280;66749;47.406;18.822;2023-02-02T00:15:31;100240.34;;;4.76;76.47
76994;BME280;66749;47.406;18.822;2023-02-02T00:16:59;100242.69;;;4.82;76.39
76994;BME280;66749;47.406;18.822;2023-02-02T00:17:33;100243.50;;;4.83;76.15
76994;BME280;66749;47.406;18.822;2023-02-02T00:18:08;100230.56;;;4.84;76.01
76994;BME280;66749;47.406;18.822;2023-02-02T00:18:39;100228.00;;;4.83;75.78
76994;BME280;66749;47.406;18.822;2023-02-02T00:19:17;100228.81;;;4.85;75.38
76994;BME280;66749;47.406;18.822;2023-02-02T00:19:50;100232.25;;;4.85;75.24
76994;BME280;66749;47.406;18.822;2023-02-02T00:20:22;100230.44;;;4.87;75.13
76994;BME280;66749;47.406;18.822;2023-02-02T00:20:54;100229.47;;;4.90;74.68
76994;BME280;66749;47.406;18.822;2023-02-02T00:21:26;100220.81;;;4.91;75.53
76994;BME280;66749;47.406;18.822;2023-02-02T00:21:58;100223.38;;;4.92;75.75
76994;BME280;66749;47.406;18.822;2023-02-02T00:22:30;100230.22;;;4.93;75.23
76994;BME280;66749;47.406;18.822;2023-02-02T00:23:02;100232.69;;;4.96;75.07
76994;BME280;66749;47.406;18.822;2023-02-02T00:23:39;100236.97;;;4.97;76.08
76994;BME280;66749;47.406;18.822;2023-02-02T00:24:12;100229.34;;;4.94;75.62
76994;BME280;66749;47.406;18.822;2023-02-02T00:24:44;100223.31;;;4.94;76.05
76994;BME280;66749;47.406;18.822;2023-02-02T00:25:16;100225.97;;;4.92;75.19
76994;BME280;66749;47.406;18.822;2023-02-02T00:25:49;100230.16;;;4.95;75.16
76994;BME280;66749;47.406;18.822;2023-02-02T00:26:28;100230.88;;;4.98;76.19
76994;BME280;66749;47.406;18.822;2023-02-02T00:27:02;100229.19;;;4.99;76.00
76994;BME280;66749;47.406;18.822;2023-02-02T00:27:37;100230.88;;;4.98;75.44
76994;BME280;66749;47.406;18.822;2023-02-02T00:28:08;100229.34;;;4.94;75.79
76994;BME280;66749;47.406;18.822;2023-02-02T00:28:42;100226.75;;;4.94;75.31
76994;BME280;66749;47.406;18.822;2023-02-02T00:29:22;100222.28;;;4.98;75.30
76994;BME280;66749;47.406;18.822;2023-02-02T00:29:53;100225.72;;;4.98;75.45
76994;BME280;66749;47.406;18.822;2023-02-02T00:30:27;100224.84;;;4.99;75.23
76994;BME280;66749;47.406;18.822;2023-02-02T00:30:59;100225.72;;;4.98;76.05
76994;BME280;66749;47.406;18.822;2023-02-02T00:31:31;100224.09;;;4.96;76.11
76994;BME280;66749;47.406;18.822;2023-02-02T00:32:03;100217.97;;;4.98;76.21
76994;BME280;66749;47.406;18.822;2023-02-02T00:32:35;100224.03;;;4.97;74.74
76994;BME280;66749;47.406;18.822;2023-02-02T00:33:06;100224.88;;;4.98;74.93
76994;BME280;66749;47.406;18.822;2023-02-02T00:33:38;100217.25;;;4.95;75.00
76994;BME280;66749;47.406;18.822;2023-02-02T00:34:12;100222.28;;;4.98;74.90
76994;BME280;66749;47.406;18.822;2023-02-02T00:34:43;100218.84;;;4.99;74.95
76994;BME280;66749;47.406;18.822;2023-02-02T00:35:15;100217.94;;;5.00;74.73
76994;BME280;66749;47.406;18.822;2023-02-02T00:35:47;100218.78;;;5.00;75.02
76994;BME280;66749;47.406;18.822;2023-02-02T00:36:19;100216.25;;;4.99;75.35
76994;BME280;66749;47.406;18.822;2023-02-02T00:36:52;100213.69;;;4.97;75.16
76994;BME280;66749;47.406;18.822;2023-02-02T00:37:24;100214.53;;;4.98;74.68
76994;BME280;66749;47.406;18.822;2023-02-02T00:37:58;100217.19;;;4.96;74.47
76994;BME280;66749;47.406;18.822;2023-02-02T00:38:30;100220.66;;;4.95;74.45
76994;BME280;66749;47.406;18.822;2023-02-02T00:39:02;100215.44;;;4.97;75.50
76994;BME280;66749;47.406;18.822;2023-02-02T00:39:35;100224.22;;;4.93;75.47
76994;BME280;66749;47.406;18.822;2023-02-02T00:40:08;100223.47;;;4.89;75.31
76994;BME280;66749;47.406;18.822;2023-02-02T00:40:40;100226.81;;;4.93;74.57
76994;BME280;66749;47.406;18.822;2023-02-02T00:41:12;100229.44;;;4.91;74.70
76994;BME280;66749;47.406;18.822;2023-02-02T00:41:44;100226.81;;;4.93;74.33
76994;BME280;66749;47.406;18.822;2023-02-02T00:42:16;100232.81;;;4.93;74.42
76994;BME280;66749;47.406;18.822;2023-02-02T00:42:48;100237.22;;;4.91;75.28
76994;BME280;66749;47.406;18.822;2023-02-02T00:43:20;100240.66;;;4.90;74.99
76994;BME280;66749;47.406;18.822;2023-02-02T00:43:55;100237.22;;;4.91;75.12
76994;BME280;66749;47.406;18.822;2023-02-02T00:44:46;100247.63;;;4.88;74.00
76994;BME280;66749;47.406;18.822;2023-02-02T00:45:39;100243.16;;;4.93;73.43
76994;BME280;66749;47.406;18.822;2023-02-02T00:46:14;100238.97;;;4.89;74.05
76994;BME280;66749;47.406;18.822;2023-02-02T00:46:47;100252.03;;;4.86;74.21
76994;BME280;66749;47.406;18.822;2023-02-02T00:47:19;100254.50;;;4.89;74.14
76994;BME280;66749;47.406;18.822;2023-02-02T00:47:50;100254.41;;;4.92;72.91
76994;BME280;66749;47.406;18.822;2023-02-02T00:48:22;100248.38;;;4.92;72.90
76994;BME280;66749;47.406;18.822;2023-02-02T00:48:58;100246.53;;;4.95;71.90
76994;BME280;66749;47.406;18.822;2023-02-02T00:49:30;100250.78;;;4.96;72.93
76994;BME280;66749;47.406;18.822;2023-02-02T00:50:02;100242.88;;;5.01;72.45
76994;BME280;66749;47.406;18.822;2023-02-02T00:50:34;100240.38;;;4.99;72.34
76994;BME280;66749;47.406;18.822;2023-02-02T00:51:06;100245.41;;;5.03;73.40
76994;BME280;66749;47.406;18.822;2023-02-02T00:51:38;100248.06;;;5.01;73.28
76994;BME280;66749;47.406;18.822;2023-02-02T00:52:12;100241.16;;;5.01;72.57
76994;BME280;66749;47.406;18.822;2023-02-02T00:52:45;100238.66;;;4.98;72.90
76994;BME280;66749;47.406;18.822;2023-02-02T00:53:18;100238.72;;;4.97;72.68
76994;BME280;66749;47.406;18.822;2023-02-02T00:53:50;100235.34;;;4.95;73.06
76994;BME280;66749;47.406;18.822;2023-02-02T00:54:22;100236.94;;;4.99;72.51
76994;BME280;66749;47.406;18.822;2023-02-02T00:55:01;100233.53;;;4.97;73.47
76994;BME280;66749;47.406;18.822;2023-02-02T00:55:33;100233.59;;;4.95;72.35
76994;BME280;66749;47.406;18.822;2023-02-02T00:56:04;100235.19;;;4.99;73.35
76994;BME280;66749;47.406;18.822;2023-02-02T00:56:36;100242.03;;;5.00;73.31
76994;BME280;66749;47.406;18.822;2023-02-02T00:57:12;100248.13;;;4.99;73.35
76994;BME280;66749;47.406;18.822;2023-02-02T00:57:44;100248.91;;;5.01;72.96
76994;BME280;66749;47.406;18.822;2023-02-02T00:58:15;100255.81;;;5.01;73.54
76994;BME280;66749;47.406;18.822;2023-02-02T00:58:54;100250.72;;;4.99;72.91
76994;BME280;66749;47.406;18.822;2023-02-02T00:59:26;100249.88;;;4.99;73.47
76994;BME280;66749;47.406;18.822;2023-02-02T00:59:58;100251.63;;;4.97;73.29
76994;BME280;66749;47.406;18.822;2023-02-02T01:00:30;100250.78;;;4.96;72.91
76994;BME280;66749;47.406;18.822;2023-02-02T01:01:01;100258.47;;;4.99;72.99
76994;BME280;66749;47.406;18.822;2023-02-02T01:01:34;100261.13;;;4.96;72.93
76994;BME280;66749;47.406;18.822;2023-02-02T01:02:05;100258.56;;;4.96;72.97
76994;BME280;66749;47.406;18.822;2023-02-02T01:02:39;100263.63;;;4.99;73.44
76994;BME280;66749;47.406;18.822;2023-02-02T01:03:14;100264.41;;;5.01;73.74
76994;BME280;66749;47.406;18.822;2023-02-02T01:03:47;100272.25;;;5.00;73.53
76994;BME280;66749;47.406;18.822;2023-02-02T01:04:19;100272.25;;;5.00;73.15
76994;BME280;66749;47.406;18.822;2023-02-02T01:04:51;100270.56;;;4.99;73.18
76994;BME280;66749;47.406;18.822;2023-02-02T01:05:23;100261.91;;;5.00;72.72
76994;BME280;66749;47.406;18.822;2023-02-02T01:05:56;100275.72;;;4.99;73.45
76994;BME280;66749;47.406;18.822;2023-02-02T01:06:28;100280.09;;;4.97;72.86
76994;BME280;66749;47.406;18.822;2023-02-02T01:07:00;100270.63;;;4.96;73.55
76994;BME280;66749;47.406;18.822;2023-02-02T01:07:31;100271.47;;;4.96;73.76
76994;BME280;66749;47.406;18.822;2023-02-02T01:08:04;100274.97;;;4.95;73.22
76994;BME280;66749;47.406;18.822;2023-02-02T01:08:36;100272.38;;;4.95;73.23
76994;BME280;66749;47.406;18.822;2023-02-02T01:09:07;100276.72;;;4.95;73.80
76994;BME280;66749;47.406;18.822;2023-02-02T01:09:39;100280.91;;;4.97;74.20
76994;BME280;66749;47.406;18.822;2023-02-02T01:10:16;100280.97;;;4.96;74.60
76994;BME280;66749;47.406;18.822;2023-02-02T01:10:48;100282.72;;;4.95;74.52
76994;BME280;66749;47.406;18.822;2023-02-02T01:11:20;100278.34;;;4.97;74.43
76994;BME280;66749;47.406;18.822;2023-02-02T01:11:51;100280.09;;;4.97;74.18
76994;BME280;66749;47.406;18.822;2023-02-02T01:12:23;100290.47;;;4.95;74.47
76994;BME280;66749;47.406;18.822;2023-02-02T01:12:56;100282.88;;;4.91;74.19
76994;BME280;66749;47.406;18.822;2023-02-02T01:13:28;100284.69;;;4.89;75.12
76994;BME280;66749;47.406;18.822;2023-02-02T01:14:00;100272.78;;;4.85;74.68
76994;BME280;66749;47.406;18.822;2023-02-02T01:14:31;100279.69;;;4.84;75.71
76994;BME280;66749;47.406;18.822;2023-02-02T01:15:03;100277.31;;;4.78;75.49
76994;BME280;66749;47.406;18.822;2023-02-02T01:15:38;100279.97;;;4.75;75.29
76994;BME280;66749;47.406;18.822;2023-02-02T01:16:10;100281.63;;;4.78;76.02
76994;BME280;66749;47.406;18.822;2023-02-02T01:16:49;100271.44;;;4.73;75.87
76994;BME280;66749;47.406;18.822;2023-02-02T01:17:21;100273.03;;;4.77;76.17
76994;BME280;66749;47.406;18.822;2023-02-02T01:17:52;100272.41;;;4.70;75.97
76994;BME280;66749;47.406;18.822;2023-02-02T01:18:25;100272.47;;;4.67;76.42
76994;BME280;66749;47.406;18.822;2023-02-02T01:18:56;100269.88;;;4.69;75.85
76994;BME280;66749;47.406;18.822;2023-02-02T01:19:28;100276.72;;;4.70;75.83
76994;BME280;66749;47.406;18.822;2023-02-02T01:20:02;100280.09;;;4.72;76.46
76994;BME280;66749;47.406;18.822;2023-02-02T01:20:36;100283.66;;;4.68;76.36
76994;BME280;66749;47.406;18.822;2023-02-02T01:21:11;100281.31;;;4.62;76.62
76994;BME280;66749;47.406;18.822;2023-02-02T01:21:46;100274.41;;;4.61;77.02
76994;BME280;66749;47.406;18.822;2023-02-02T01:22:21;100287.47;;;4.58;76.26
76994;BME280;66749;47.406;18.822;2023-02-02T01:22:53;100270.22;;;4.58;76.47
76994;BME280;66749;47.406;18.822;2023-02-02T01:23:25;100269.47;;;4.55;77.06
76994;BME280;66749;47.406;18.822;2023-02-02T01:23:56;100280.59;;;4.57;76.74
76994;BME280;66749;47.406;18.822;2023-02-02T01:24:28;100294.38;;;4.57;77.30
76994;BME280;66749;47.406;18.822;2023-02-02T01:25:03;100292.56;;;4.59;77.19
76994;BME280;66749;47.406;18.822;2023-02-02T01:25:35;100289.19;;;4.57;77.29
76994;BME280;66749;47.406;18.822;2023-02-02T01:26:10;100291.00;;;4.55;77.10
76994;BME280;66749;47.406;18.822;2023-02-02T01:26:42;100292.03;;;4.50;77.71
76994;BME280;66749;47.406;18.822;2023-02-02T01:27:14;100295.31;;;4.55;77.17
76994;BME280;66749;47.406;18.822;2023-02-02T01:27:45;100297.91;;;4.55;78.10
76994;BME280;66749;47.406;18.822;2023-02-02T01:28:17;100293.00;;;4.47;78.00
76994;BME280;66749;47.406;18.822;2023-02-02T01:28:50;100301.78;;;4.41;78.58
76994;BME280;66749;47.406;18.822;2023-02-02T01:29:21;100294.13;;;4.38;78.48
76994;BME280;66749;47.406;18.822;2023-02-02T01:29:53;100300.34;;;4.33;79.26
76994;BME280;66749;47.406;18.822;2023-02-02T01:30:25;100297.81;;;4.31;79.42
76994;BME280;66749;47.406;18.822;2023-02-02T01:30:57;100296.97;;;4.31;79.41
76994;BME280;66749;47.406;18.822;2023-02-02T01:31:29;100300.53;;;4.27;79.67
76994;BME280;66749;47.406;18.822;2023-02-02T01:32:01;100292.91;;;4.22;80.20
76994;BME280;66749;47.406;18.822;2023-02-02T01:32:37;100299.03;;;4.20;79.82
76994;BME280;66749;47.406;18.822;2023-02-02T01:33:08;100291.34;;;4.18;80.70
76994;BME280;66749;47.406;18.822;2023-02-02T01:33:41;100298.47;;;4.10;80.91
76994;BME280;66749;47.406;18.822;2023-02-02T01:34:14;100284.63;;;4.12;80.79
76994;BME280;66749;47.406;18.822;2023-02-02T01:34:45;100290.56;;;4.16;80.56
76994;BME280;66749;47.406;18.822;2023-02-02T01:35:19;100291.56;;;4.10;81.21
76994;BME280;66749;47.406;18.822;2023-02-02T01:35:53;100294.22;;;4.09;81.49
76994;BME280;66749;47.406;18.822;2023-02-02T01:36:25;100290.63;;;4.13;80.51
76994;BME280;66749;47.406;18.822;2023-02-02T01:36:57;100291.38;;;4.16;81.33
76994;BME280;66749;47.406;18.822;2023-02-02T01:37:28;100289.84;;;4.11;80.89
76994;BME280;66749;47.406;18.822;2023-02-02T01:38:00;100289.84;;;4.11;81.38
76994;BME280;66749;47.406;18.822;2023-02-02T01:38:32;100299.28;;;4.12;81.40
76994;BME280;66749;47.406;18.822;2023-02-02T01:39:07;100303.69;;;4.08;81.39
76994;BME280;66749;47.406;18.822;2023-02-02T01:39:40;100295.19;;;4.05;81.25
76994;BME280;66749;47.406;18.822;2023-02-02T01:40:12;100290.03;;;4.05;81.92
76994;BME280;66749;47.406;18.822;2023-02-02T01:40:50;100292.53;;;4.06;81.48
76994;BME280;66749;47.406;18.822;2023-02-02T01:41:25;100286.41;;;4.10;81.89
76994;BME280;66749;47.406;18.822;2023-02-02T01:41:59;100284.97;;;4.02;81.79
76994;BME280;66749;47.406;18.822;2023-02-02T01:42:30;100292.72;;;4.00;81.78
76994;BME280;66749;47.406;18.822;2023-02-02T01:43:14;100281.66;;;3.97;81.91
76994;BME280;66749;47.406;18.822;2023-02-02T01:43:58;100279.88;;;3.99;81.76
76994;BME280;66749;47.406;18.822;2023-02-02T01:45:43;100273.88;;;3.98;82.10
76994;BME280;66749;47.406;18.822;2023-02-02T01:46:16;100272.97;;;3.99;82.11
76994;BME280;66749;47.406;18.822;2023-02-02T01:46:48;100269.59;;;3.97;82.24
76994;BME280;66749;47.406;18.822;2023-02-02T01:47:24;100267.03;;;3.97;81.88
76994;BME280;66749;47.406;18.822;2023-02-02T01:47:58;100262.88;;;3.92;82.29
76994;BME280;66749;47.406;18.822;2023-02-02T01:48:33;100258.63;;;3.90;82.05
76994;BME280;66749;47.406;18.822;2023-02-02T01:49:12;100261.06;;;3.95;82.07
76994;BME280;66749;47.406;18.822;2023-02-02T01:49:44;100257.72;;;3.92;82.08
76994;BME280;66749;47.406;18.822;2023-02-02T01:50:32;100261.19;;;3.90;82.65
76994;BME280;66749;47.406;18.822;2023-02-02T01:51:10;100265.53;;;3.90;82.35
76994;BME280;66749;47.406;18.822;2023-02-02T01:51:55;100262.88;;;3.92;82.18
76994;BME280;66749;47.406;18.822;2023-02-02T01:52:31;100263.72;;;3.92;82.22
76994;BME280;66749;47.406;18.822;2023-02-02T01:53:06;100266.19;;;3.97;82.15
76994;BME280;66749;47.406;18.822;2023-02-02T01:53:40;100262.81;;;3.95;82.34
76994;BME280;66749;47.406;18.822;2023-02-02T01:54:26;100263.78;;;3.90;81.85
76994;BME280;66749;47.406;18.822;2023-02-02T01:55:03;100262.94;;;3.90;82.52
76994;BME280;66749;47.406;18.822;2023-02-02T01:55:40;100265.44;;;3.93;82.23
76994;BME280;66749;47.406;18.822;2023-02-02T01:56:22;100269.72;;;3.93;82.58
76994;BME280;66749;47.406;18.822;2023-02-02T01:56:59;100262.81;;;3.95;82.38
76994;BME280;66749;47.406;18.822;2023-02-02T01:58:26;100252.56;;;3.92;82.64
76994;BME280;66749;47.406;18.822;2023-02-02T01:59:00;100249.00;;;3.96;82.32
76994;BME280;66749;47.406;18.822;2023-02-02T01:59:33;100251.66;;;3.94;82.88
76994;BME280;66749;47.406;18.822;2023-02-02T02:00:12;100247.38;;;3.93;83.04
76994;BME280;66749;47.406;18.822;2023-02-02T02:00:44;100248.34;;;3.89;82.49
76994;BME280;66749;47.406;18.822;2023-02-02T02:01:17;100247.31;;;3.95;82.69
76994;BME280;66749;47.406;18.822;2023-02-02T02:01:54;100249.06;;;3.94;82.88
76994;BME280;66749;47.406;18.822;2023-02-02T02:02:29;100252.53;;;3.93;82.60
76994;BME280;66749;47.406;18.822;2023-02-02T02:03:08;100248.22;;;3.94;82.77
76994;BME280;66749;47.406;18.822;2023-02-02T02:03:42;100242.16;;;3.95;82.37
76994;BME280;66749;47.406;18.822;2023-02-02T02:04:17;100244.81;;;3.92;82.59
76994;BME280;66749;47.406;18.822;2023-02-02T02:04:49;100239.66;;;3.92;82.86
76994;BME280;66749;47.406;18.822;2023-02-02T02:05:26;100242.22;;;3.92;82.24
76994;BME280;66749;47.406;18.822;2023-02-02T02:06:03;100242.22;;;3.92;83.15
76994;BME280;66749;47.406;18.822;2023-02-02T02:06:44;100241.25;;;3.96;82.55
76994;BME280;66749;47.406;18.822;2023-02-02T02:07:16;100241.31;;;3.94;82.63
76994;BME280;66749;47.406;18.822;2023-02-02T02:08:02;100239.56;;;3.95;82.62
76994;BME280;66749;47.406;18.822;2023-02-02T02:08:39;100246.56;;;3.91;82.77
76994;BME280;66749;47.406;18.822;2023-02-02T02:09:13;100247.50;;;3.88;82.56
76994;BME280;66749;47.406;18.822;2023-02-02T02:09:44;100251.72;;;3.91;82.64
76994;BME280;66749;47.406;18.822;2023-02-02T02:10:17;100249.19;;;3.89;82.29
76994;BME280;66749;47.406;18.822;2023-02-02T02:10:49;100249.06;;;3.94;82.72
76994;BME280;66749;47.406;18.822;2023-02-02T02:11:33;100238.03;;;3.89;82.44
76994;BME280;66749;47.406;18.822;2023-02-02T02:12:10;100233.69;;;3.89;82.51
76994;BME280;66749;47.406;18.822;2023-02-02T02:12:46;100237.97;;;3.90;82.76
76994;BME280;66749;47.406;18.822;2023-02-02T02:13:23;100234.59;;;3.88;82.86
76994;BME280;66749;47.406;18.822;2023-02-02T02:14:16;100237.78;;;3.97;82.40
76994;BME280;66749;47.406;18.822;2023-02-02T02:15:07;100238.06;;;3.87;82.51
76994;BME280;66749;47.406;18.822;2023-02-02T02:16:09;100226.66;;;3.95;82.99
76994;BME280;66749;47.406;18.822;2023-02-02T02:17:18;100231.00;;;3.93;82.69
76994;BME280;66749;47.406;18.822;2023-02-02T02:18:44;100224.38;;;3.85;83.03
76994;BME280;66749;47.406;18.822;2023-02-02T02:21:50;100195.88;;;3.88;83.22
76994;BME280;66749;47.406;18.822;2023-02-02T02:25:34;100204.13;;;4.00;83.28
76994;BME280;66749;47.406;18.822;2023-02-02T02:26:45;100215.19;;;4.03;83.25
76994;BME280;66749;47.406;18.822;2023-02-02T02:30:12;100246.47;;;3.94;83.36
76994;BME280;66749;47.406;18.822;2023-02-02T02:32:26;100256.75;;;3.96;82.88
76994;BME280;66749;47.406;18.822;2023-02-02T02:34:00;100240.56;;;3.90;82.99
76994;BME280;66749;47.406;18.822;2023-02-02T02:34:42;100247.25;;;3.96;82.87
76994;BME280;66749;47.406;18.822;2023-02-02T02:35:32;100246.44;;;3.96;82.76
76994;BME280;66749;47.406;18.822;2023-02-02T02:36:30;100243.84;;;3.96;83.49
76994;BME280;66749;47.406;18.822;2023-02-02T02:39:31;100243.91;;;3.93;83.54
76994;BME280;66749;47.406;18.822;2023-02-02T02:40:14;100245.63;;;3.94;83.25
76994;BME280;66749;47.406;18.822;2023-02-02T02:40:55;100242.94;;;3.97;83.51
76994;BME280;66749;47.406;18.822;2023-02-02T02:41:39;100241.38;;;3.91;83.25
76994;BME280;66749;47.406;18.822;2023-02-02T02:42:16;100235.31;;;3.94;82.92
76994;BME280;66749;47.406;18.822;2023-02-02T02:42:54;100242.34;;;3.88;83.58
76994;BME280;66749;47.406;18.822;2023-02-02T02:43:34;100248.16;;;3.95;83.18
76994;BME280;66749;47.406;18.822;2023-02-02T02:44:13;100239.56;;;3.95;82.99
76994;BME280;66749;47.406;18.822;2023-02-02T02:44:48;100240.38;;;3.97;82.76
76994;BME280;66749;47.406;18.822;2023-02-02T02:45:21;100236.81;;;4.01;82.45
76994;BME280;66749;47.406;18.822;2023-02-02T02:45:54;100232.44;;;4.03;83.24
76994;BME280;66749;47.406;18.822;2023-02-02T02:46:27;100235.31;;;3.94;83.53
76994;BME280;66749;47.406;18.822;2023-02-02T02:46:59;100228.34;;;3.96;82.55
76994;BME280;66749;47.406;18.822;2023-02-02T02:47:32;100230.81;;;3.99;83.15
76994;BME280;66749;47.406;18.822;2023-02-02T02:48:07;100234.22;;;4.01;82.75
76994;BME280;66749;47.406;18.822;2023-02-02T02:48:43;100223.28;;;3.93;83.10
76994;BME280;66749;47.406;18.822;2023-02-02T02:49:15;100236.16;;;3.94;83.07
76994;BME280;66749;47.406;18.822;2023-02-02T02:49:48;100234.47;;;3.93;83.20
76994;BME280;66749;47.406;18.822;2023-02-02T02:50:27;100244.63;;;3.98;82.98
76994;BME280;66749;47.406;18.822;2023-02-02T02:52:08;100245.72;;;3.90;83.08
76994;BME280;66749;47.406;18.822;2023-02-02T02:52:40;100237.19;;;3.88;82.82
76994;BME280;66749;47.406;18.822;2023-02-02T02:53:16;100233.59;;;3.93;83.08
76994;BME280;66749;47.406;18.822;2023-02-02T02:53:51;100237.78;;;3.97;82.38
76994;BME280;66749;47.406;18.822;2023-02-02T02:54:27;100223.28;;;3.93;82.95
76994;BME280;66749;47.406;18.822;2023-02-02T02:55:01;100232.72;;;3.94;82.84
76994;BME280;66749;47.406;18.822;2023-02-02T02:56:32;100228.44;;;3.93;82.78
76994;BME280;66749;47.406;18.822;2023-02-02T02:57:19;100233.53;;;3.96;83.09
76994;BME280;66749;47.406;18.822;2023-02-02T02:58:53;100232.13;;;3.85;83.14
76994;BME280;66749;47.406;18.822;2023-02-02T02:59:51;100229.72;;;3.79;83.42
76994;BME280;66749;47.406;18.822;2023-02-02T03:01:25;100237.31;;;3.84;83.62
76994;BME280;66749;47.406;18.822;2023-02-02T03:02:23;100226.91;;;3.87;83.50
76994;BME280;66749;47.406;18.822;2023-02-02T03:04:22;100233.88;;;3.83;82.92
76994;BME280;66749;47.406;18.822;2023-02-02T03:07:03;100225.31;;;3.83;83.10
76994;BME280;66749;47.406;18.822;2023-02-02T03:07:44;100230.63;;;3.78;83.19
76994;BME280;66749;47.406;18.822;2023-02-02T03:08:30;100221.88;;;3.82;83.19
76994;BME280;66749;47.406;18.822;2023-02-02T03:09:08;100230.41;;;3.84;82.70
76994;BME280;66749;47.406;18.822;2023-02-02T03:09:43;100229.81;;;3.76;83.16
76994;BME280;66749;47.406;18.822;2023-02-02T03:10:21;100222.88;;;3.78;83.22
76994;BME280;66749;47.406;18.822;2023-02-02T03:10:57;100224.66;;;3.76;83.00
76994;BME280;66749;47.406;18.822;2023-02-02T03:11:30;100222.00;;;3.79;82.74
76994;BME280;66749;47.406;18.822;2023-02-02T03:12:04;100217.91;;;3.72;82.97
76994;BME280;66749;47.406;18.822;2023-02-02T03:12:47;100210.94;;;3.74;83.03
76994;BME280;66749;47.406;18.822;2023-02-02T03:13:19;100219.53;;;3.75;83.24
76994;BME280;66749;47.406;18.822;2023-02-02T03:13:51;100212.59;;;3.77;82.90
76994;BME280;66749;47.406;18.822;2023-02-02T03:14:23;100212.63;;;3.75;82.49
76994;BME280;66749;47.406;18.822;2023-02-02T03:14:58;100210.84;;;3.77;83.44
76994;BME280;66749;47.406;18.822;2023-02-02T03:15:29;100217.09;;;3.70;83.05
76994;BME280;66749;47.406;18.822;2023-02-02T03:16:01;100217.84;;;3.74;82.69
76994;BME280;66749;47.406;18.822;2023-02-02T03:16:33;100217.97;;;3.71;82.88
76994;BME280;66749;47.406;18.822;2023-02-02T03:17:04;100217.09;;;3.70;82.65
76994;BME280;66749;47.406;18.822;2023-02-02T03:17:36;100217.97;;;3.71;82.36
76994;BME280;66749;47.406;18.822;2023-02-02T03:18:08;100217.97;;;3.71;82.70
76994;BME280;66749;47.406;18.822;2023-02-02T03:18:40;100223.84;;;3.74;82.73
76994;BME280;66749;47.406;18.822;2023-02-02T03:19:12;100228.91;;;3.77;82.24
76994;BME280;66749;47.406;18.822;2023-02-02T03:19:43;100223.00;;;3.74;82.27
76994;BME280;66749;47.406;18.822;2023-02-02T03:20:18;100231.66;;;3.73;82.72
76994;BME280;66749;47.406;18.822;2023-02-02T03:20:52;100233.44;;;3.71;82.34
76994;BME280;66749;47.406;18.822;2023-02-02T03:21:27;100235.16;;;3.70;81.89
76994;BME280;66749;47.406;18.822;2023-02-02T03:21:58;100226.53;;;3.71;81.92
76994;BME280;66749;47.406;18.822;2023-02-02T03:22:33;100230.69;;;3.75;82.62
76994;BME280;66749;47.406;18.822;2023-02-02T03:23:04;100236.72;;;3.76;82.45
76994;BME280;66749;47.406;18.822;2023-02-02T03:23:39;100245.25;;;3.78;82.89
76994;BME280;66749;47.406;18.822;2023-02-02T03:24:10;100233.22;;;3.78;82.57
76994;BME280;66749;47.406;18.822;2023-02-02T03:24:42;100238.31;;;3.80;81.89
76994;BME280;66749;47.406;18.822;2023-02-02T03:25:14;100240.84;;;3.81;81.49
76994;BME280;66749;47.406;18.822;2023-02-02T03:25:46;100239.28;;;3.76;82.16
76994;BME280;66749;47.406;18.822;2023-02-02T03:26:18;100237.72;;;3.70;82.18
76994;BME280;66749;47.406;18.822;2023-02-02T03:26:50;100237.66;;;3.73;82.04
76994;BME280;66749;47.406;18.822;2023-02-02T03:27:22;100235.97;;;3.72;81.92